Time;durP1;ratioP1;P1;durP2;ratioP2;P2;SDS_P1;SDS_P2;PMS_P1;PMS_P2;Temp;Humidity;BMP_temperature;BMP_pressure;BME280_temperature;BME280_humidity;BME280_pressure;Samples;Min_cycle;Max_cycle;Signal;HPM_P1;HPM_P2
2023/12/24 00:01:44;;;;;;;10.00;4.20;;;;;;;-8.71;100.00;140167.89;106935;1275;24255;-60
2023/12/24 00:04:30;;;;;;;7.90;4.20;;;;;;;-8.75;100.00;140159.25;106888;1275;22529;-61
2023/12/24 00:07:17;;;;;;;9.60;4.50;;;;;;;-8.78;100.00;140150.88;106843;1275;25373;-61
2023/12/24 00:10:04;;;;;;;12.60;5.40;;;;;;;-8.82;100.00;140140.28;106843;1272;25386;-56
2023/12/24 00:12:50;;;;;;;10.90;4.40;;;;;;;-8.84;100.00;140137.83;106873;1260;22526;-54
2023/12/24 00:15:38;;;;;;;10.00;4.40;;;;;;;-8.84;100.00;140137.08;106839;1275;24241;-58
2023/12/24 00:18:24;;;;;;;9.20;4.50;;;;;;;-8.80;100.00;140146.67;106819;1275;22587;-61
2023/12/24 00:21:14;;;;;;;10.50;5.30;;;;;;;-8.74;100.00;140161.22;106864;1275;22528;-59
2023/12/24 00:24:00;;;;;;;10.20;4.70;;;;;;;-8.73;100.00;140163.94;106868;1275;25419;-61
2023/12/24 00:26:46;;;;;;;9.50;3.70;;;;;;;-8.71;100.00;140168.63;106863;1269;24977;-64
2023/12/24 00:29:33;;;;;;;10.10;4.60;;;;;;;-8.68;100.00;140175.53;106919;1275;22531;-59
2023/12/24 00:32:20;;;;;;;10.60;5.10;;;;;;;-8.66;100.00;140181.45;106805;1275;25373;-60
2023/12/24 00:35:06;;;;;;;11.50;5.30;;;;;;;-8.62;100.00;140189.83;106954;1275;26494;-60
2023/12/24 00:37:56;;;;;;;13.00;5.30;;;;;;;-8.60;100.00;140195.02;106755;1275;24248;-59
2023/12/24 00:40:42;;;;;;;8.00;4.00;;;;;;;-8.56;100.00;140204.39;106922;1275;22534;-59
2023/12/24 00:43:29;;;;;;;11.40;4.50;;;;;;;-8.59;100.00;140196.50;106946;1275;25316;-58
2023/12/24 00:46:16;;;;;;;7.00;3.80;;;;;;;-8.57;100.00;140202.66;106926;1275;26542;-61
2023/12/24 00:49:02;;;;;;;10.20;4.40;;;;;;;-8.56;100.00;140204.64;106792;1275;24272;-62
2023/12/24 00:51:50;;;;;;;10.90;5.30;;;;;;;-8.61;100.00;140192.28;106930;1275;22536;-60
2023/12/24 00:54:36;;;;;;;13.70;4.40;;;;;;;-8.60;100.00;140196.25;106911;1274;22526;-60
2023/12/24 00:57:24;;;;;;;9.90;4.00;;;;;;;-8.52;100.00;140214.25;106956;1275;24247;-60
2023/12/24 01:00:11;;;;;;;8.70;4.50;;;;;;;-8.46;100.00;140228.03;106964;1275;25356;-61
2023/12/24 01:02:58;;;;;;;7.50;4.50;;;;;;;-8.44;100.00;140233.22;110568;1275;22216;-57
2023/12/24 01:05:44;;;;;;;7.40;4.00;;;;;;;-8.40;100.00;140242.34;110578;1275;22215;-57
2023/12/24 01:08:31;;;;;;;9.40;4.50;;;;;;;-8.40;100.00;140242.84;110586;1257;22871;-61
2023/12/24 01:11:17;;;;;;;9.00;4.10;;;;;;;-8.36;100.00;140253.16;110606;1275;22112;-57
2023/12/24 01:14:03;;;;;;;9.20;4.40;;;;;;;-8.37;100.00;140250.19;110422;1272;22796;-57
2023/12/24 01:16:50;;;;;;;10.70;4.70;;;;;;;-8.35;100.00;140256.13;110423;1264;22196;-60
2023/12/24 01:19:36;;;;;;;8.80;4.00;;;;;;;-8.32;100.00;140262.78;110498;1275;22128;-58
2023/12/24 01:22:22;;;;;;;8.30;3.60;;;;;;;-8.33;100.00;140261.05;110492;1275;22149;-59
2023/12/24 01:25:11;;;;;;;7.20;3.70;;;;;;;-8.29;100.00;140269.94;110497;1275;22984;-59
2023/12/24 01:27:58;;;;;;;7.30;3.80;;;;;;;-8.21;100.00;140289.67;110415;1270;22134;-58
2023/12/24 01:30:44;;;;;;;8.60;4.50;;;;;;;-8.17;100.00;140299.53;110527;1275;22193;-58
2023/12/24 01:33:30;;;;;;;9.60;4.80;;;;;;;-8.13;100.00;140308.66;110553;1275;22952;-59
2023/12/24 01:36:17;;;;;;;7.30;3.60;;;;;;;-8.16;100.00;140301.25;110485;1275;22219;-60
2023/12/24 01:39:03;;;;;;;12.00;4.60;;;;;;;-8.20;100.00;140289.91;110571;1273;22146;-59
2023/12/24 01:41:49;;;;;;;7.20;3.80;;;;;;;-8.32;100.00;140261.78;110446;1275;22093;-58
2023/12/24 01:44:35;;;;;;;8.90;4.20;;;;;;;-8.33;100.00;140260.08;110446;1275;22076;-59
2023/12/24 01:47:22;;;;;;;9.20;3.60;;;;;;;-8.37;100.00;140248.97;110881;1268;22844;-61
2023/12/24 01:50:09;;;;;;;9.30;4.30;;;;;;;-8.32;100.00;140262.03;110482;1275;22091;-61
2023/12/24 01:52:56;;;;;;;9.10;4.10;;;;;;;-8.30;100.00;140266.72;110502;1275;22121;-59
2023/12/24 01:55:43;;;;;;;11.60;4.90;;;;;;;-8.39;100.00;140245.80;110446;1275;22187;-58
2023/12/24 01:58:29;;;;;;;10.50;4.00;;;;;;;-8.44;100.00;140232.27;110389;1275;22241;-60
2023/12/24 02:01:16;;;;;;;7.60;4.00;;;;;;;-8.47;100.00;140225.83;110454;1260;22142;-59
2023/12/24 02:04:02;;;;;;;10.00;4.30;;;;;;;-8.47;100.00;140224.09;110486;1275;22902;-61
2023/12/24 02:06:50;;;;;;;7.90;3.60;;;;;;;-8.47;100.00;140225.84;110472;1275;22925;-60
2023/12/24 02:09:38;;;;;;;9.20;4.90;;;;;;;-8.51;100.00;140216.22;110384;1275;22101;-59
2023/12/24 02:12:24;;;;;;;9.40;3.60;;;;;;;-8.50;100.00;140219.42;110505;1275;22216;-60
2023/12/24 02:15:10;;;;;;;7.80;3.80;;;;;;;-8.43;100.00;140234.22;110503;1275;22101;-58
2023/12/24 02:17:59;;;;;;;11.10;3.70;;;;;;;-8.37;100.00;140249.45;110443;1275;22730;-62
2023/12/24 02:20:47;;;;;;;9.00;4.20;;;;;;;-8.34;100.00;140257.34;110429;1260;22990;-58
2023/12/24 02:23:33;;;;;;;11.80;4.10;;;;;;;-8.36;100.00;140251.19;110520;1275;22126;-56
2023/12/24 02:26:30;;;;;;;7.50;3.60;;;;;;;-8.36;100.00;140251.92;110448;1275;22121;-59
2023/12/24 02:29:26;;;;;;;7.30;3.80;;;;;;;-8.34;100.00;140256.61;110582;1275;22148;-60
2023/12/24 02:32:15;;;;;;;9.10;4.40;;;;;;;-8.33;100.00;140259.33;110543;1275;22317;-61
2023/12/24 02:35:03;;;;;;;11.20;4.30;;;;;;;-8.32;100.00;140261.80;110515;1275;22135;-62
2023/12/24 02:37:49;;;;;;;7.80;3.50;;;;;;;-8.33;100.00;140259.83;110466;1275;22123;-59
2023/12/24 02:40:36;;;;;;;9.40;3.80;;;;;;;-8.37;100.00;140250.94;110425;1275;22995;-60
2023/12/24 02:43:22;;;;;;;10.30;3.40;;;;;;;-8.38;100.00;140247.48;110498;1275;22873;-59
2023/12/24 02:46:08;;;;;;;9.00;3.90;;;;;;;-8.35;100.00;140255.39;110616;1275;22157;-58
2023/12/24 02:48:54;;;;;;;8.10;4.40;;;;;;;-8.31;100.00;140265.50;110587;1275;22229;-62
2023/12/24 02:51:40;;;;;;;10.50;3.90;;;;;;;-8.28;100.00;140271.91;110612;1275;22796;-62
2023/12/24 02:54:26;;;;;;;8.70;3.70;;;;;;;-8.31;100.00;140264.28;110568;1275;22106;-59
2023/12/24 02:57:12;;;;;;;9.90;4.10;;;;;;;-8.36;100.00;140251.92;110416;1275;22252;-60
2023/12/24 02:59:58;;;;;;;8.70;3.90;;;;;;;-8.43;100.00;140234.47;110387;1275;22839;-60
2023/12/24 03:02:46;;;;;;;11.00;4.40;;;;;;;-8.53;100.00;140212.78;110474;1275;22874;-59
2023/12/24 03:05:32;;;;;;;9.40;3.30;;;;;;;-8.55;100.00;140207.34;110448;1275;22981;-60
2023/12/24 03:08:19;;;;;;;8.20;3.50;;;;;;;-8.56;100.00;140204.38;110476;1275;22131;-57
2023/12/24 03:11:05;;;;;;;11.60;3.60;;;;;;;-8.56;100.00;140203.91;110436;1275;22186;-55
2023/12/24 03:13:52;;;;;;;8.10;4.00;;;;;;;-8.51;100.00;140214.97;110113;1278;22408;-61
2023/12/24 03:16:38;;;;;;;10.40;4.60;;;;;;;-8.58;100.00;140200.42;110133;1278;22359;-60
2023/12/24 03:19:24;;;;;;;7.90;3.80;;;;;;;-8.62;100.00;140190.58;110120;1278;22148;-60
2023/12/24 03:22:11;;;;;;;9.10;4.00;;;;;;;-8.59;100.00;140196.75;110137;1278;22169;-57
2023/12/24 03:24:57;;;;;;;7.50;3.90;;;;;;;-8.60;100.00;140195.50;110101;1278;22301;-63
2023/12/24 03:27:43;;;;;;;7.00;3.50;;;;;;;-8.67;100.00;140178.00;110125;1278;22183;-63
2023/12/24 03:30:29;;;;;;;12.70;4.10;;;;;;;-8.73;100.00;140163.95;110115;1278;22150;-59
2023/12/24 03:33:16;;;;;;;9.40;3.30;;;;;;;-8.70;100.00;140169.13;110109;1278;22835;-57
2023/12/24 03:36:02;;;;;;;7.20;4.10;;;;;;;-8.71;100.00;140167.66;110112;1278;22880;-62
2023/12/24 03:38:49;;;;;;;9.00;3.50;;;;;;;-8.69;100.00;140172.56;110111;1278;22144;-61
2023/12/24 03:41:35;;;;;;;8.60;3.80;;;;;;;-8.63;100.00;140186.39;110118;1278;22877;-61
2023/12/24 03:44:21;;;;;;;9.20;3.40;;;;;;;-8.64;100.00;140184.17;110231;1275;22380;-59
2023/12/24 03:47:07;;;;;;;11.70;3.60;;;;;;;-8.62;100.00;140189.09;110450;1275;22141;-59
2023/12/24 03:49:53;;;;;;;12.60;5.00;;;;;;;-8.65;100.00;140182.19;110457;1275;22195;-61
2023/12/24 03:52:39;;;;;;;7.80;4.10;;;;;;;-8.69;100.00;140173.06;110431;1275;22159;-60
2023/12/24 03:55:26;;;;;;;7.60;3.60;;;;;;;-8.70;100.00;140171.59;110430;1275;22169;-60
2023/12/24 03:58:12;;;;;;;9.30;3.70;;;;;;;-8.64;100.00;140184.91;110460;1275;22143;-59
2023/12/24 04:00:59;;;;;;;6.60;3.20;;;;;;;-8.60;100.00;140195.50;110452;1275;22262;-59
2023/12/24 04:03:46;;;;;;;7.60;3.90;;;;;;;-8.50;100.00;140219.17;110555;1275;22399;-57
2023/12/24 04:06:32;;;;;;;8.60;4.00;;;;;;;-8.42;100.00;140236.67;110419;1275;22183;-60
2023/12/24 04:09:19;;;;;;;7.80;3.40;;;;;;;-8.37;100.00;140248.98;110571;1274;22334;-59
2023/12/24 04:12:06;;;;;;;7.30;4.00;;;;;;;-8.31;100.00;140265.75;110454;1275;22135;-61
2023/12/24 04:14:52;;;;;;;9.70;3.70;;;;;;;-8.27;100.00;140272.66;110601;1275;22809;-60
2023/12/24 04:17:38;;;;;;;10.90;4.00;;;;;;;-8.29;100.00;140269.45;110584;1275;22236;-61
2023/12/24 04:20:24;;;;;;;8.90;3.90;;;;;;;-8.26;100.00;140276.59;110414;1275;22129;-56
2023/12/24 04:23:11;;;;;;;6.40;3.60;;;;;;;-8.26;100.00;140277.33;110429;1275;22138;-60
2023/12/24 04:25:57;;;;;;;10.00;3.90;;;;;;;-8.26;100.00;140275.38;110548;1275;22136;-60
2023/12/24 04:28:44;;;;;;;9.80;3.10;;;;;;;-8.33;100.00;140259.34;110451;1275;22251;-60
2023/12/24 04:31:30;;;;;;;8.00;3.50;;;;;;;-8.37;100.00;140249.97;110441;1260;22813;-60
2023/12/24 04:34:16;;;;;;;9.10;3.80;;;;;;;-8.39;100.00;140245.55;110390;1275;22176;-58
2023/12/24 04:37:03;;;;;;;8.50;3.40;;;;;;;-8.35;100.00;140254.39;110385;1275;22148;-61
2023/12/24 04:39:49;;;;;;;8.20;3.70;;;;;;;-8.28;100.00;140271.41;110360;1275;22837;-62
2023/12/24 04:42:35;;;;;;;9.80;3.80;;;;;;;-8.24;100.00;140280.80;110436;1275;22150;-56
2023/12/24 04:45:22;;;;;;;7.30;3.40;;;;;;;-8.24;100.00;140280.30;110409;1275;22135;-60
2023/12/24 04:48:07;;;;;;;9.20;3.90;;;;;;;-8.29;100.00;140269.95;110586;1267;22144;-59
2023/12/24 04:50:54;;;;;;;9.50;3.60;;;;;;;-8.29;100.00;140268.47;110506;1275;22213;-59
2023/12/24 04:53:40;;;;;;;8.70;3.80;;;;;;;-8.27;100.00;140272.39;110388;1267;22107;-55
2023/12/24 04:56:29;;;;;;;8.10;4.20;;;;;;;-8.31;100.00;140265.27;110459;1275;22186;-58
2023/12/24 04:59:15;;;;;;;11.00;3.40;;;;;;;-8.35;100.00;140255.89;110439;1275;22809;-58
2023/12/24 05:02:02;;;;;;;9.30;3.70;;;;;;;-8.39;100.00;140245.03;110442;1275;22143;-62
2023/12/24 05:04:49;;;;;;;9.30;3.80;;;;;;;-8.42;100.00;140237.41;110587;1275;22115;-59
2023/12/24 05:07:35;;;;;;;9.90;3.60;;;;;;;-8.43;100.00;140235.45;110593;1275;22413;-60
2023/12/24 05:10:21;;;;;;;8.00;3.50;;;;;;;-8.40;100.00;140241.38;110483;1275;22807;-59
2023/12/24 05:13:10;;;;;;;7.80;3.60;;;;;;;-8.48;100.00;140222.63;110601;1275;22782;-63
2023/12/24 05:15:56;;;;;;;8.00;3.80;;;;;;;-8.48;100.00;140223.11;110549;1275;22175;-62
2023/12/24 05:18:42;;;;;;;8.60;3.20;;;;;;;-8.44;100.00;140232.97;110578;1275;22245;-61
2023/12/24 05:21:29;;;;;;;8.60;3.80;;;;;;;-8.43;100.00;140234.97;110468;1275;22126;-62
2023/12/24 05:24:16;;;;;;;7.50;3.60;;;;;;;-8.42;100.00;140237.91;110492;1275;119917;-58
2023/12/24 05:27:02;;;;;;;9.20;3.70;;;;;;;-8.43;100.00;140234.47;110464;1275;22158;-59
2023/12/24 05:29:48;;;;;;;10.20;3.90;;;;;;;-8.42;100.00;140237.42;110564;1275;22147;-59
2023/12/24 05:32:34;;;;;;;6.50;3.20;;;;;;;-8.45;100.00;140229.78;110537;1275;22245;-61
2023/12/24 05:35:21;;;;;;;8.10;3.50;;;;;;;-8.44;100.00;140232.00;110589;1275;22108;-60
2023/12/24 05:38:07;;;;;;;10.00;4.50;;;;;;;-8.41;100.00;140240.38;110561;1275;22139;-60
2023/12/24 05:40:54;;;;;;;8.30;3.70;;;;;;;-8.38;100.00;140246.53;110607;1274;22216;-61
2023/12/24 05:43:40;;;;;;;10.60;4.60;;;;;;;-8.40;100.00;140243.58;110578;1275;22174;-61
2023/12/24 05:46:27;;;;;;;7.80;3.30;;;;;;;-8.41;100.00;140240.13;110639;1275;22237;-61
2023/12/24 05:49:12;;;;;;;10.10;4.10;;;;;;;-8.48;100.00;140222.88;110546;1269;22144;-59
2023/12/24 05:51:59;;;;;;;10.00;4.90;;;;;;;-8.55;100.00;140206.11;110449;1275;22832;-62
2023/12/24 05:54:45;;;;;;;7.80;3.90;;;;;;;-8.58;100.00;140199.95;110464;1275;22826;-58
2023/12/24 05:57:31;;;;;;;9.80;4.40;;;;;;;-8.66;100.00;140179.72;110447;1275;22120;-62
2023/12/24 06:00:17;;;;;;;9.40;4.00;;;;;;;-8.68;100.00;140174.53;110442;1275;22230;-57
2023/12/24 06:03:04;;;;;;;10.60;4.30;;;;;;;-8.67;100.00;140177.25;110459;1275;22935;-59
2023/12/24 06:05:50;;;;;;;10.50;3.80;;;;;;;-8.64;100.00;140186.16;110424;1275;22262;-62
2023/12/24 06:08:38;;;;;;;14.40;5.00;;;;;;;-8.60;100.00;140194.28;110443;1275;22154;-59
2023/12/24 06:11:25;;;;;;;9.30;4.70;;;;;;;-8.69;100.00;140173.81;110456;1275;22796;-58
2023/12/24 06:14:11;;;;;;;8.60;4.10;;;;;;;-8.71;100.00;140166.91;110455;1275;22106;-59
2023/12/24 06:16:58;;;;;;;10.10;4.20;;;;;;;-8.68;100.00;140174.80;110474;1275;22219;-59
2023/12/24 06:19:44;;;;;;;10.80;4.00;;;;;;;-8.66;100.00;140178.97;110436;1275;22237;-60
2023/12/24 06:22:31;;;;;;;7.70;4.60;;;;;;;-8.62;100.00;140190.08;110438;1275;22103;-62
2023/12/24 06:25:19;;;;;;;9.80;3.90;;;;;;;-8.57;100.00;140201.42;110493;1275;22364;-62
2023/12/24 06:28:05;;;;;;;8.50;3.90;;;;;;;-8.52;100.00;140214.23;110512;1275;22152;-58
2023/12/24 06:30:51;;;;;;;9.30;4.20;;;;;;;-8.46;100.00;140228.80;110538;1275;22358;-59
2023/12/24 06:33:37;;;;;;;10.70;4.40;;;;;;;-8.38;100.00;140247.02;110533;1275;22307;-63
2023/12/24 06:36:24;;;;;;;13.70;5.30;;;;;;;-8.33;100.00;140260.56;110555;1268;22360;-62
2023/12/24 06:39:11;;;;;;;10.20;4.70;;;;;;;-8.32;100.00;140262.78;110505;1275;22331;-63
2023/12/24 06:41:58;;;;;;;11.30;5.00;;;;;;;-8.32;100.00;140261.80;110486;1275;22329;-61
2023/12/24 06:44:44;;;;;;;12.90;6.00;;;;;;;-8.35;100.00;140255.14;110474;1275;22106;-60
2023/12/24 06:47:30;;;;;;;10.40;5.10;;;;;;;-8.40;100.00;140243.09;110534;1275;22173;-59
2023/12/24 06:50:17;;;;;;;11.00;4.80;;;;;;;-8.44;100.00;140232.27;110516;1275;22315;-61
2023/12/24 06:53:05;;;;;;;9.50;4.40;;;;;;;-8.44;100.00;140233.47;110531;1275;22297;-63
2023/12/24 06:55:51;;;;;;;13.00;4.90;;;;;;;-8.41;100.00;140240.39;110503;1275;22164;-57
2023/12/24 06:58:38;;;;;;;9.40;4.90;;;;;;;-8.42;100.00;140237.67;110521;1267;22961;-63
2023/12/24 07:01:24;;;;;;;15.80;5.20;;;;;;;-8.48;100.00;140222.63;110508;1273;22320;-62
2023/12/24 07:04:10;;;;;;;10.00;4.60;;;;;;;-8.45;100.00;140229.78;110534;1275;22570;-60
2023/12/24 07:06:56;;;;;;;10.80;4.80;;;;;;;-8.39;100.00;140244.33;110662;1267;22347;-62
2023/12/24 07:09:42;;;;;;;9.60;4.80;;;;;;;-8.35;100.00;140253.41;110505;1275;22177;-60
2023/12/24 07:12:30;;;;;;;7.30;4.10;;;;;;;-8.32;100.00;140261.30;110464;1275;22133;-60
2023/12/24 07:15:16;;;;;;;11.60;4.80;;;;;;;-8.30;100.00;140265.97;110545;1274;22903;-60
2023/12/24 07:18:02;;;;;;;13.40;4.70;;;;;;;-8.25;100.00;140277.58;110589;1275;22129;-61
2023/12/24 07:20:49;;;;;;;13.60;5.20;;;;;;;-8.28;100.00;140270.19;110561;1275;22142;-63
2023/12/24 07:23:37;;;;;;;11.60;6.20;;;;;;;-8.26;100.00;140275.61;110584;1275;22211;-63
2023/12/24 07:26:23;;;;;;;11.70;4.80;;;;;;;-8.21;100.00;140288.67;110449;1275;22831;-62
2023/12/24 07:29:09;;;;;;;10.50;5.80;;;;;;;-8.15;100.00;140303.50;110448;1275;22142;-59
2023/12/24 07:31:55;;;;;;;10.30;5.10;;;;;;;-8.20;100.00;140291.41;110458;1275;22111;-62
2023/12/24 07:34:41;;;;;;;9.80;5.20;;;;;;;-8.21;100.00;140288.45;110469;1275;22132;-61
2023/12/24 07:37:27;;;;;;;10.90;5.00;;;;;;;-8.22;100.00;140285.72;110555;1275;22202;-68
2023/12/24 07:40:14;;;;;;;16.50;6.10;;;;;;;-8.23;100.00;140283.03;110620;1275;22231;-61
2023/12/24 07:43:01;;;;;;;12.10;5.20;;;;;;;-8.22;100.00;140284.98;110561;1275;22271;-63
2023/12/24 07:45:47;;;;;;;15.30;5.30;;;;;;;-8.21;100.00;140289.17;110603;1275;22327;-56
2023/12/24 07:48:33;;;;;;;12.10;5.60;;;;;;;-8.20;100.00;140292.38;110573;1275;22145;-60
2023/12/24 07:51:20;;;;;;;14.50;5.00;;;;;;;-8.20;100.00;140291.41;110560;1275;22218;-60
2023/12/24 07:54:06;;;;;;;11.80;4.60;;;;;;;-8.25;100.00;140279.56;110572;1275;22149;-61
2023/12/24 07:56:52;;;;;;;12.30;4.60;;;;;;;-8.32;100.00;140262.53;110575;1275;22139;-62
2023/12/24 07:59:37;;;;;;;11.10;4.80;;;;;;;-8.31;100.00;140265.25;110594;1274;22245;-60
2023/12/24 08:02:24;;;;;;;11.10;5.20;;;;;;;-8.26;100.00;140277.09;110514;1275;22204;-64
2023/12/24 08:05:11;;;;;;;11.60;5.10;;;;;;;-8.27;100.00;140274.13;110490;1275;22128;-64
2023/12/24 08:07:57;;;;;;;11.10;4.90;;;;;;;-8.26;100.00;140276.34;110487;1275;22605;-65
2023/12/24 08:10:43;;;;;;;8.60;4.60;;;;;;;-8.27;100.00;140274.13;110468;1275;22149;-62
2023/12/24 08:13:29;;;;;;;8.60;4.30;;;;;;;-8.39;100.00;140243.83;110457;1274;22753;-65
2023/12/24 08:16:15;;;;;;;15.60;5.90;;;;;;;-8.43;100.00;140236.20;110455;1275;22272;-60
2023/12/24 08:19:02;;;;;;;11.60;5.60;;;;;;;-8.37;100.00;140249.97;110572;1275;22165;-64
2023/12/24 08:21:49;;;;;;;11.50;5.50;;;;;;;-8.33;100.00;140259.84;110605;1275;22118;-65
2023/12/24 08:24:35;;;;;;;13.30;5.60;;;;;;;-8.28;100.00;140271.17;110640;1275;22213;-61
2023/12/24 08:27:21;;;;;;;14.10;6.40;;;;;;;-8.19;100.00;140294.63;110551;1256;23012;-62
2023/12/24 08:30:08;;;;;;;15.00;5.60;;;;;;;-8.07;100.00;140322.22;110564;1274;22842;-61
2023/12/24 08:32:54;;;;;;;11.60;5.60;;;;;;;-8.01;100.00;140337.03;110553;1255;22950;-62
2023/12/24 08:35:41;;;;;;;13.10;5.40;;;;;;;-7.94;100.00;140353.58;110554;1275;22565;-59
2023/12/24 08:38:28;;;;;;;12.40;5.40;;;;;;;-7.90;100.00;140362.94;110485;1275;22142;-61
2023/12/24 08:41:14;;;;;;;12.60;6.00;;;;;;;-7.88;100.00;140369.34;110508;1271;22325;-60
2023/12/24 08:44:00;;;;;;;11.40;5.10;;;;;;;-7.89;100.00;140366.14;110566;1268;22819;-61
2023/12/24 08:46:48;;;;;;;11.80;5.70;;;;;;;-8.01;100.00;140337.28;110523;1275;22311;-57
2023/12/24 08:49:34;;;;;;;9.20;4.60;;;;;;;-8.12;100.00;140312.13;110498;1275;22236;-59
2023/12/24 08:52:21;;;;;;;10.30;5.00;;;;;;;-8.18;100.00;140297.08;110488;1275;22176;-57
2023/12/24 08:55:08;;;;;;;11.10;5.10;;;;;;;-8.27;100.00;140274.88;110612;1275;22150;-63
2023/12/24 08:57:54;;;;;;;11.50;5.40;;;;;;;-8.31;100.00;140265.00;110493;1275;22158;-64
2023/12/24 09:00:40;;;;;;;10.80;5.00;;;;;;;-8.30;100.00;140266.47;110466;1275;22153;-61
2023/12/24 09:03:26;;;;;;;11.80;4.80;;;;;;;-8.31;100.00;140266.00;110540;1275;22154;-58
2023/12/24 09:06:13;;;;;;;10.60;4.60;;;;;;;-8.24;100.00;140280.05;110475;1273;22293;-61
2023/12/24 09:08:59;;;;;;;12.90;4.40;;;;;;;-8.07;100.00;140322.95;110524;1275;23012;-63
2023/12/24 09:11:47;;;;;;;12.10;5.30;;;;;;;-7.90;100.00;140363.92;110560;1269;22335;-61
2023/12/24 09:14:33;;;;;;;10.90;4.90;;;;;;;-7.79;100.00;140388.84;110547;1275;22322;-67
2023/12/24 09:17:19;;;;;;;7.80;4.30;;;;;;;-7.73;100.00;140403.67;110662;1255;22624;-69
2023/12/24 09:20:07;;;;;;;9.50;4.40;;;;;;;-7.70;100.00;140412.80;110542;1275;22320;-63
2023/12/24 09:22:53;;;;;;;11.60;4.30;;;;;;;-7.75;100.00;140400.69;110547;1275;22143;-62
2023/12/24 09:25:40;;;;;;;11.30;4.10;;;;;;;-7.87;100.00;140371.08;110560;1275;22189;-60
2023/12/24 09:28:26;;;;;;;9.90;4.10;;;;;;;-7.98;100.00;140343.19;110549;1275;22088;-58
2023/12/24 09:31:12;;;;;;;10.50;4.10;;;;;;;-8.14;100.00;140306.70;110591;1275;22936;-63
2023/12/24 09:33:59;;;;;;;11.30;4.70;;;;;;;-8.29;100.00;140270.19;110566;1275;22138;-63
2023/12/24 09:36:45;;;;;;;10.70;4.20;;;;;;;-8.36;100.00;140251.42;110595;1275;22116;-62
2023/12/24 09:39:32;;;;;;;13.60;4.80;;;;;;;-8.38;100.00;140247.75;110545;1275;22910;-62
2023/12/24 09:42:19;;;;;;;8.80;3.70;;;;;;;-8.43;100.00;140234.22;110476;1275;22937;-62
2023/12/24 09:45:05;;;;;;;11.40;4.10;;;;;;;-8.42;100.00;140237.92;110495;1275;22275;-57
2023/12/24 09:47:51;;;;;;;11.20;4.10;;;;;;;-8.41;100.00;140240.38;110492;1275;22148;-62
2023/12/24 09:50:38;;;;;;;8.80;4.50;;;;;;;-8.35;100.00;140254.88;110523;1275;22932;-60
2023/12/24 09:53:24;;;;;;;11.20;4.50;;;;;;;-8.29;100.00;140268.20;110877;1254;22156;-61
2023/12/24 09:56:10;;;;;;;7.60;3.80;;;;;;;-8.25;100.00;140279.80;110488;1275;22119;-60
2023/12/24 09:58:56;;;;;;;8.90;5.30;;;;;;;-8.21;100.00;140287.70;110477;1275;22144;-63
2023/12/24 10:01:48;;;;;;;;;;;;;;;-8.18;100.00;140296.55;110522;1275;22194;-63
2023/12/24 10:04:34;;;;;;;11.30;3.90;;;;;;;-8.12;100.00;140310.14;110580;1275;22153;-62
2023/12/24 10:07:20;;;;;;;7.30;4.40;;;;;;;-8.06;100.00;140325.45;110608;1275;22820;-59
2023/12/24 10:10:11;;;;;;;8.30;3.90;;;;;;;-7.97;100.00;140345.66;110507;1275;22130;-62
2023/12/24 10:13:05;;;;;;;11.30;4.30;;;;;;;-7.90;100.00;140362.45;110471;1275;22122;-64
2023/12/24 10:16:02;;;;;;;9.50;4.00;;;;;;;-7.80;100.00;140386.61;110556;1274;22836;-63
2023/12/24 10:18:50;;;;;;;10.70;4.60;;;;;;;-7.73;100.00;140405.88;110585;1275;22251;-61
2023/12/24 10:21:37;;;;;;;7.60;4.20;;;;;;;-7.72;100.00;140406.61;110610;1274;22120;-63
2023/12/24 10:24:22;;;;;;;10.50;4.20;;;;;;;-7.75;100.00;140399.22;110560;1267;22381;-61
2023/12/24 10:27:10;;;;;;;9.00;4.10;;;;;;;-7.80;100.00;140386.89;110519;1271;22154;-61
2023/12/24 10:30:13;;;;;;;7.40;4.00;;;;;;;-7.82;100.00;140381.95;110591;1268;22360;-61
2023/12/24 10:33:11;;;;;;;7.60;3.20;;;;;;;-7.84;100.00;140378.02;110538;1275;22392;-60
2023/12/24 10:35:58;;;;;;;7.00;3.40;;;;;;;-7.86;100.00;140373.56;110503;1275;22137;-64
2023/12/24 10:38:44;;;;;;;10.60;4.90;;;;;;;-7.80;100.00;140387.13;110547;1275;22876;-62
2023/12/24 10:41:30;;;;;;;8.20;4.40;;;;;;;-7.74;100.00;140402.45;110516;1275;22126;-64
2023/12/24 10:44:17;;;;;;;12.00;5.10;;;;;;;-7.78;100.00;140391.09;110468;1275;22327;-62
2023/12/24 10:47:04;;;;;;;17.20;6.40;;;;;;;-7.90;100.00;140364.42;110523;1275;22813;-62
2023/12/24 10:49:52;;;;;;;14.70;5.70;;;;;;;-7.99;100.00;140340.25;110537;1275;22319;-64
2023/12/24 10:52:38;;;;;;;13.70;5.50;;;;;;;-8.01;100.00;140335.05;110571;1274;22825;-63
2023/12/24 10:55:25;;;;;;;9.40;4.60;;;;;;;-8.07;100.00;140323.47;110599;1275;22808;-61
2023/12/24 10:58:18;;;;;;;7.60;3.90;;;;;;;-8.13;100.00;140308.66;110562;1275;22243;-62
2023/12/24 11:01:09;;;;;;;7.60;3.70;;;;;;;-8.22;100.00;140284.73;110580;1275;22198;-61
2023/12/24 11:03:56;;;;;;;7.40;3.30;;;;;;;-8.26;100.00;140276.59;110609;1275;22795;-63
2023/12/24 11:06:43;;;;;;;9.00;3.50;;;;;;;-8.24;100.00;140280.55;110617;1275;22189;-62
2023/12/24 11:09:32;;;;;;;10.10;3.70;;;;;;;-8.27;100.00;140273.41;110611;1275;23121;-61
2023/12/24 11:12:36;;;;;;;7.70;3.90;;;;;;;-8.29;100.00;140269.67;110606;1275;23023;-63
2023/12/24 11:15:39;;;;;;;9.70;3.60;;;;;;;-8.23;100.00;140284.47;110585;1275;22120;-62
2023/12/24 11:18:46;;;;;;;6.70;3.80;;;;;;;-8.22;100.00;140285.47;110621;1275;22217;-63
2023/12/24 11:22:12;;;;;;;6.60;3.70;;;;;;;-8.32;100.00;140261.78;110590;1275;22191;-61
2023/12/24 11:25:16;;;;;;;8.70;4.30;;;;;;;-8.36;100.00;140250.94;110605;1274;22138;-60
2023/12/24 11:28:07;;;;;;;8.10;3.40;;;;;;;-8.36;100.00;140252.17;110542;1275;22135;-63
2023/12/24 11:30:53;;;;;;;6.90;3.50;;;;;;;-8.28;100.00;140272.16;110490;1275;22186;-61
2023/12/24 11:33:46;;;;;;;10.70;5.00;;;;;;;-8.24;100.00;140280.55;110510;1275;22131;-67
2023/12/24 11:36:33;;;;;;;9.00;4.50;;;;;;;-8.30;100.00;140266.97;110528;1275;22192;-62
2023/12/24 11:39:19;;;;;;;9.80;4.80;;;;;;;-8.27;100.00;140273.88;110554;1275;22135;-62
2023/12/24 11:42:06;;;;;;;14.10;5.30;;;;;;;-8.21;100.00;140288.45;110534;1275;22282;-59
2023/12/24 11:44:55;;;;;;;11.80;6.00;;;;;;;-8.25;100.00;140279.05;110522;1275;22142;-60
2023/12/24 11:47:43;;;;;;;10.40;5.00;;;;;;;-8.29;100.00;140268.47;110541;1275;22142;-61
2023/12/24 11:50:29;;;;;;;8.90;4.60;;;;;;;-8.31;100.00;140264.50;110532;1275;22237;-62
2023/12/24 11:53:19;;;;;;;9.00;3.90;;;;;;;-8.33;100.00;140259.08;110545;1275;22818;-61
2023/12/24 11:56:11;;;;;;;8.10;3.70;;;;;;;-8.32;100.00;140262.03;110528;1275;22111;-64
2023/12/24 11:58:59;;;;;;;;;;;;;;;-8.29;100.00;140269.94;110554;1275;22196;-63
2023/12/24 12:01:45;;;;;;;7.40;3.60;;;;;;;-8.34;100.00;140257.84;110561;1275;22124;-62
2023/12/24 12:04:31;;;;;;;10.50;4.00;;;;;;;-8.36;100.00;140253.41;110534;1275;22143;-62
2023/12/24 12:07:16;;;;;;;10.80;4.20;;;;;;;-8.34;100.00;140257.11;110568;1275;22864;-62
2023/12/24 12:10:03;;;;;;;10.60;4.60;;;;;;;-8.34;100.00;140256.13;110763;1257;23062;-62
2023/12/24 12:12:50;;;;;;;14.70;6.80;;;;;;;-8.38;100.00;140248.72;110560;1275;22986;-62
2023/12/24 12:15:36;;;;;;;12.60;5.30;;;;;;;-8.39;100.00;140244.33;110496;1275;22145;-63
2023/12/24 12:18:23;;;;;;;10.80;4.50;;;;;;;-8.44;100.00;140231.27;110539;1275;22132;-64
2023/12/24 12:21:12;;;;;;;7.00;3.70;;;;;;;-8.38;100.00;140247.02;110525;1275;22126;-62
2023/12/24 12:23:58;;;;;;;11.80;6.60;;;;;;;-8.29;100.00;140268.22;110543;1275;22112;-62
2023/12/24 12:26:45;;;;;;;11.40;5.00;;;;;;;-8.15;100.00;140302.50;110571;1275;22299;-63
2023/12/24 12:29:31;;;;;;;11.80;6.40;;;;;;;-8.04;100.00;140328.88;110581;1275;22253;-60
2023/12/24 12:32:18;;;;;;;15.00;7.30;;;;;;;-8.03;100.00;140330.63;110612;1275;22109;-62
2023/12/24 12:35:04;;;;;;;11.20;5.10;;;;;;;-8.12;100.00;140311.88;110616;1275;22132;-63
2023/12/24 12:37:51;;;;;;;10.80;5.50;;;;;;;-8.20;100.00;140290.91;110610;1257;22156;-61